sensor_id;sensor_type;location;lat;lon;timestamp;temperature;humidity
13328;DHT22;6733;51.044;3.746;2023-02-10T00:01:19;5.90;99.90
13328;DHT22;6733;51.044;3.746;2023-02-10T00:03:46;5.90;99.90
13328;DHT22;6733;51.044;3.746;2023-02-10T00:06:13;5.80;99.90
13328;DHT22;6733;51.044;3.746;2023-02-10T00:08:40;5.80;99.90
13328;DHT22;6733;51.044;3.746;2023-02-10T00:11:09;5.80;99.90
13328;DHT22;6733;51.044;3.746;2023-02-10T00:13:37;5.80;99.90
13328;DHT22;6733;51.044;3.746;2023-02-10T00:16:06;5.80;99.90
13328;DHT22;6733;51.044;3.746;2023-02-10T00:18:32;5.80;99.90
13328;DHT22;6733;51.044;3.746;2023-02-10T00:21:11;5.70;99.90
13328;DHT22;6733;51.044;3.746;2023-02-10T00:23:37;5.70;99.90
13328;DHT22;6733;51.044;3.746;2023-02-10T00:26:05;5.70;99.90
13328;DHT22;6733;51.044;3.746;2023-02-10T00:28:33;5.70;99.90
13328;DHT22;6733;51.044;3.746;2023-02-10T00:31:04;5.70;99.90
13328;DHT22;6733;51.044;3.746;2023-02-10T00:33:30;5.60;99.90
13328;DHT22;6733;51.044;3.746;2023-02-10T00:35:56;5.60;99.90
13328;DHT22;6733;51.044;3.746;2023-02-10T00:38:23;5.60;99.90
13328;DHT22;6733;51.044;3.746;2023-02-10T00:40:49;5.60;99.90
13328;DHT22;6733;51.044;3.746;2023-02-10T00:43:15;5.50;99.90
13328;DHT22;6733;51.044;3.746;2023-02-10T00:45:41;5.50;99.90
13328;DHT22;6733;51.044;3.746;2023-02-10T00:48:07;5.50;99.90
13328;DHT22;6733;51.044;3.746;2023-02-10T00:50:33;5.50;99.90
13328;DHT22;6733;51.044;3.746;2023-02-10T00:52:59;5.60;99.90
13328;DHT22;6733;51.044;3.746;2023-02-10T00:55:25;5.60;99.90
13328;DHT22;6733;51.044;3.746;2023-02-10T00:57:52;5.70;99.90
13328;DHT22;6733;51.044;3.746;2023-02-10T01:00:18;5.80;99.90
13328;DHT22;6733;51.044;3.746;2023-02-10T01:02:44;5.80;99.90
13328;DHT22;6733;51.044;3.746;2023-02-10T01:05:10;5.90;99.90
13328;DHT22;6733;51.044;3.746;2023-02-10T01:07:36;5.90;99.90
13328;DHT22;6733;51.044;3.746;2023-02-10T01:10:02;6.00;99.90
13328;DHT22;6733;51.044;3.746;2023-02-10T01:12:28;5.90;99.90
13328;DHT22;6733;51.044;3.746;2023-02-10T01:14:54;6.00;99.90
13328;DHT22;6733;51.044;3.746;2023-02-10T01:17:21;6.00;99.90
13328;DHT22;6733;51.044;3.746;2023-02-10T01:19:47;6.00;99.90
13328;DHT22;6733;51.044;3.746;2023-02-10T01:22:17;6.10;99.90
13328;DHT22;6733;51.044;3.746;2023-02-10T01:24:43;6.20;99.90
13328;DHT22;6733;51.044;3.746;2023-02-10T01:27:09;6.20;99.90
13328;DHT22;6733;51.044;3.746;2023-02-10T01:29:35;6.30;99.90
13328;DHT22;6733;51.044;3.746;2023-02-10T01:32:01;6.30;99.90
13328;DHT22;6733;51.044;3.746;2023-02-10T01:34:27;6.30;99.90
13328;DHT22;6733;51.044;3.746;2023-02-10T01:36:53;6.30;99.90
13328;DHT22;6733;51.044;3.746;2023-02-10T01:39:19;6.30;99.90
13328;DHT22;6733;51.044;3.746;2023-02-10T01:41:45;6.20;99.90
13328;DHT22;6733;51.044;3.746;2023-02-10T01:46:48;6.00;99.90
13328;DHT22;6733;51.044;3.746;2023-02-10T01:49:18;5.90;99.90
13328;DHT22;6733;51.044;3.746;2023-02-10T01:51:54;5.80;99.90
13328;DHT22;6733;51.044;3.746;2023-02-10T01:54:26;5.70;99.90
13328;DHT22;6733;51.044;3.746;2023-02-10T01:56:56;5.60;99.90
13328;DHT22;6733;51.044;3.746;2023-02-10T01:59:24;5.50;99.90
13328;DHT22;6733;51.044;3.746;2023-02-10T02:01:51;5.40;99.90
13328;DHT22;6733;51.044;3.746;2023-02-10T02:04:17;5.40;99.90
13328;DHT22;6733;51.044;3.746;2023-02-10T02:06:44;5.30;99.90
13328;DHT22;6733;51.044;3.746;2023-02-10T02:09:12;5.30;99.90
13328;DHT22;6733;51.044;3.746;2023-02-10T02:14:49;5.20;99.90
13328;DHT22;6733;51.044;3.746;2023-02-10T02:20:22;5.00;99.90
13328;DHT22;6733;51.044;3.746;2023-02-10T02:29:03;4.80;99.90
13328;DHT22;6733;51.044;3.746;2023-02-10T02:34:39;4.70;99.90
13328;DHT22;6733;51.044;3.746;2023-02-10T02:37:17;4.60;99.90
13328;DHT22;6733;51.044;3.746;2023-02-10T02:39:44;4.60;99.90
13328;DHT22;6733;51.044;3.746;2023-02-10T02:42:14;4.60;99.90
13328;DHT22;6733;51.044;3.746;2023-02-10T02:44:42;4.50;99.90
13328;DHT22;6733;51.044;3.746;2023-02-10T02:52:49;4.50;99.90
13328;DHT22;6733;51.044;3.746;2023-02-10T02:58:14;4.40;99.90
13328;DHT22;6733;51.044;3.746;2023-02-10T03:00:43;4.40;99.90
13328;DHT22;6733;51.044;3.746;2023-02-10T03:03:10;4.40;99.90
13328;DHT22;6733;51.044;3.746;2023-02-10T03:05:36;4.50;99.90
13328;DHT22;6733;51.044;3.746;2023-02-10T03:08:03;4.40;99.90
13328;DHT22;6733;51.044;3.746;2023-02-10T03:10:29;4.40;99.90
13328;DHT22;6733;51.044;3.746;2023-02-10T03:12:55;4.40;99.90
13328;DHT22;6733;51.044;3.746;2023-02-10T03:15:21;4.50;99.90
13328;DHT22;6733;51.044;3.746;2023-02-10T03:17:48;4.50;99.90
13328;DHT22;6733;51.044;3.746;2023-02-10T03:20:14;4.50;99.90
13328;DHT22;6733;51.044;3.746;2023-02-10T03:22:42;4.50;99.90
13328;DHT22;6733;51.044;3.746;2023-02-10T03:25:08;4.60;99.90
13328;DHT22;6733;51.044;3.746;2023-02-10T03:27:34;4.60;99.90
13328;DHT22;6733;51.044;3.746;2023-02-10T03:30:00;4.60;99.90
13328;DHT22;6733;51.044;3.746;2023-02-10T03:32:26;4.60;99.90
13328;DHT22;6733;51.044;3.746;2023-02-10T03:34:53;4.60;99.90
13328;DHT22;6733;51.044;3.746;2023-02-10T03:37:19;4.60;99.90
13328;DHT22;6733;51.044;3.746;2023-02-10T03:39:45;4.60;99.90
13328;DHT22;6733;51.044;3.746;2023-02-10T03:42:11;4.60;99.90
13328;DHT22;6733;51.044;3.746;2023-02-10T03:44:37;4.60;99.90
13328;DHT22;6733;51.044;3.746;2023-02-10T03:47:03;4.60;99.90
13328;DHT22;6733;51.044;3.746;2023-02-10T03:49:29;4.50;99.90
13328;DHT22;6733;51.044;3.746;2023-02-10T03:51:55;4.50;99.90
13328;DHT22;6733;51.044;3.746;2023-02-10T03:54:21;4.50;99.90
13328;DHT22;6733;51.044;3.746;2023-02-10T03:56:48;4.50;99.90
13328;DHT22;6733;51.044;3.746;2023-02-10T03:59:14;4.50;99.90
13328;DHT22;6733;51.044;3.746;2023-02-10T04:01:40;4.50;99.90
13328;DHT22;6733;51.044;3.746;2023-02-10T04:04:06;4.60;99.90
13328;DHT22;6733;51.044;3.746;2023-02-10T04:06:32;4.60;99.90
13328;DHT22;6733;51.044;3.746;2023-02-10T04:08:58;4.60;99.90
13328;DHT22;6733;51.044;3.746;2023-02-10T04:11:24;4.60;99.90
13328;DHT22;6733;51.044;3.746;2023-02-10T04:13:50;4.70;99.90
13328;DHT22;6733;51.044;3.746;2023-02-10T04:16:17;4.70;99.90
13328;DHT22;6733;51.044;3.746;2023-02-10T04:18:45;4.80;99.90
13328;DHT22;6733;51.044;3.746;2023-02-10T04:21:12;4.80;99.90
13328;DHT22;6733;51.044;3.746;2023-02-10T04:23:38;4.80;99.90
13328;DHT22;6733;51.044;3.746;2023-02-10T04:26:04;4.80;99.90
13328;DHT22;6733;51.044;3.746;2023-02-10T04:28:31;4.90;99.90
13328;DHT22;6733;51.044;3.746;2023-02-10T04:30:59;4.90;99.90
13328;DHT22;6733;51.044;3.746;2023-02-10T04:33:25;4.90;99.90
13328;DHT22;6733;51.044;3.746;2023-02-10T04:35:53;4.90;99.90
13328;DHT22;6733;51.044;3.746;2023-02-10T04:38:20;4.90;99.90
13328;DHT22;6733;51.044;3.746;2023-02-10T04:40:46;4.90;99.90
13328;DHT22;6733;51.044;3.746;2023-02-10T04:43:13;5.00;99.90
13328;DHT22;6733;51.044;3.746;2023-02-10T04:45:39;5.00;99.90
13328;DHT22;6733;51.044;3.746;2023-02-10T04:48:06;5.00;99.90
13328;DHT22;6733;51.044;3.746;2023-02-10T04:50:32;5.00;99.90
13328;DHT22;6733;51.044;3.746;2023-02-10T04:52:58;4.90;99.90
13328;DHT22;6733;51.044;3.746;2023-02-10T04:55:24;5.00;99.90
13328;DHT22;6733;51.044;3.746;2023-02-10T04:57:51;4.90;99.90
13328;DHT22;6733;51.044;3.746;2023-02-10T05:00:17;4.90;99.90
13328;DHT22;6733;51.044;3.746;2023-02-10T05:02:43;4.80;99.90
13328;DHT22;6733;51.044;3.746;2023-02-10T05:05:11;4.80;99.90
13328;DHT22;6733;51.044;3.746;2023-02-10T05:07:37;4.80;99.90
13328;DHT22;6733;51.044;3.746;2023-02-10T05:10:04;4.90;99.90
13328;DHT22;6733;51.044;3.746;2023-02-10T05:12:30;4.90;99.90
13328;DHT22;6733;51.044;3.746;2023-02-10T05:14:56;5.00;99.90
13328;DHT22;6733;51.044;3.746;2023-02-10T05:17:22;5.00;99.90
13328;DHT22;6733;51.044;3.746;2023-02-10T05:19:48;5.10;99.90
13328;DHT22;6733;51.044;3.746;2023-02-10T05:22:14;5.20;99.90
13328;DHT22;6733;51.044;3.746;2023-02-10T05:24:41;5.30;99.90
13328;DHT22;6733;51.044;3.746;2023-02-10T05:27:08;5.40;99.90
13328;DHT22;6733;51.044;3.746;2023-02-10T05:29:34;5.40;99.90
13328;DHT22;6733;51.044;3.746;2023-02-10T05:32:01;5.40;99.90
13328;DHT22;6733;51.044;3.746;2023-02-10T05:34:27;5.40;99.90
13328;DHT22;6733;51.044;3.746;2023-02-10T05:36:53;5.40;99.90
13328;DHT22;6733;51.044;3.746;2023-02-10T05:39:19;5.30;99.90
13328;DHT22;6733;51.044;3.746;2023-02-10T05:41:49;5.20;99.90
13328;DHT22;6733;51.044;3.746;2023-02-10T05:44:16;5.20;99.90
13328;DHT22;6733;51.044;3.746;2023-02-10T05:46:42;5.10;99.90
13328;DHT22;6733;51.044;3.746;2023-02-10T05:49:08;5.10;99.90
13328;DHT22;6733;51.044;3.746;2023-02-10T05:51:34;5.00;99.90
13328;DHT22;6733;51.044;3.746;2023-02-10T05:54:00;5.00;99.90
13328;DHT22;6733;51.044;3.746;2023-02-10T05:56:27;5.00;99.90
13328;DHT22;6733;51.044;3.746;2023-02-10T05:58:53;4.90;99.90
13328;DHT22;6733;51.044;3.746;2023-02-10T06:01:20;4.90;99.90
13328;DHT22;6733;51.044;3.746;2023-02-10T06:03:46;4.80;99.90
13328;DHT22;6733;51.044;3.746;2023-02-10T06:06:12;4.80;99.90
13328;DHT22;6733;51.044;3.746;2023-02-10T06:08:38;4.80;99.90
13328;DHT22;6733;51.044;3.746;2023-02-10T06:11:05;4.80;99.90
13328;DHT22;6733;51.044;3.746;2023-02-10T06:13:31;4.70;99.90
13328;DHT22;6733;51.044;3.746;2023-02-10T06:15:57;4.70;99.90
13328;DHT22;6733;51.044;3.746;2023-02-10T06:18:23;4.70;99.90
13328;DHT22;6733;51.044;3.746;2023-02-10T06:20:49;4.70;99.90
13328;DHT22;6733;51.044;3.746;2023-02-10T06:23:17;4.60;99.90
13328;DHT22;6733;51.044;3.746;2023-02-10T06:25:43;4.60;99.90
13328;DHT22;6733;51.044;3.746;2023-02-10T06:28:09;4.60;99.90
13328;DHT22;6733;51.044;3.746;2023-02-10T06:30:37;4.60;99.90
13328;DHT22;6733;51.044;3.746;2023-02-10T06:33:03;4.60;99.90
13328;DHT22;6733;51.044;3.746;2023-02-10T06:35:29;4.60;99.90
13328;DHT22;6733;51.044;3.746;2023-02-10T06:37:55;4.60;99.90
13328;DHT22;6733;51.044;3.746;2023-02-10T06:40:21;4.60;99.90
13328;DHT22;6733;51.044;3.746;2023-02-10T06:42:48;4.50;99.90
13328;DHT22;6733;51.044;3.746;2023-02-10T06:45:14;4.50;99.90
13328;DHT22;6733;51.044;3.746;2023-02-10T06:47:40;4.50;99.90
13328;DHT22;6733;51.044;3.746;2023-02-10T06:50:07;4.50;99.90
13328;DHT22;6733;51.044;3.746;2023-02-10T06:52:34;4.50;99.90
13328;DHT22;6733;51.044;3.746;2023-02-10T06:55:05;4.40;99.90
13328;DHT22;6733;51.044;3.746;2023-02-10T06:57:32;4.40;99.90
13328;DHT22;6733;51.044;3.746;2023-02-10T06:59:58;4.50;99.90
13328;DHT22;6733;51.044;3.746;2023-02-10T07:02:24;4.50;99.90
13328;DHT22;6733;51.044;3.746;2023-02-10T07:04:50;4.60;99.90
13328;DHT22;6733;51.044;3.746;2023-02-10T07:07:16;4.60;99.90
13328;DHT22;6733;51.044;3.746;2023-02-10T07:09:43;4.70;99.90
13328;DHT22;6733;51.044;3.746;2023-02-10T07:12:09;4.70;99.90
13328;DHT22;6733;51.044;3.746;2023-02-10T07:14:35;4.70;99.90
13328;DHT22;6733;51.044;3.746;2023-02-10T07:17:02;4.70;99.90
13328;DHT22;6733;51.044;3.746;2023-02-10T07:19:28;4.70;99.90
13328;DHT22;6733;51.044;3.746;2023-02-10T07:21:54;4.80;99.90
13328;DHT22;6733;51.044;3.746;2023-02-10T07:24:20;4.80;99.90
13328;DHT22;6733;51.044;3.746;2023-02-10T07:26:46;4.90;99.90
13328;DHT22;6733;51.044;3.746;2023-02-10T07:29:13;5.00;99.90
13328;DHT22;6733;51.044;3.746;2023-02-10T07:31:39;5.10;99.90
13328;DHT22;6733;51.044;3.746;2023-02-10T07:34:05;5.10;99.90
13328;DHT22;6733;51.044;3.746;2023-02-10T07:36:31;5.20;99.90
13328;DHT22;6733;51.044;3.746;2023-02-10T07:38:57;5.30;99.90
13328;DHT22;6733;51.044;3.746;2023-02-10T07:41:23;5.40;99.90
13328;DHT22;6733;51.044;3.746;2023-02-10T07:43:49;5.40;99.90
13328;DHT22;6733;51.044;3.746;2023-02-10T07:46:15;5.50;99.90
13328;DHT22;6733;51.044;3.746;2023-02-10T07:48:42;5.50;99.90
13328;DHT22;6733;51.044;3.746;2023-02-10T07:51:08;5.50;99.90
13328;DHT22;6733;51.044;3.746;2023-02-10T07:53:34;5.50;99.90
13328;DHT22;6733;51.044;3.746;2023-02-10T07:56:04;5.50;99.90
13328;DHT22;6733;51.044;3.746;2023-02-10T07:58:30;5.50;99.90
13328;DHT22;6733;51.044;3.746;2023-02-10T08:00:56;5.60;99.90
13328;DHT22;6733;51.044;3.746;2023-02-10T08:03:22;5.50;99.90
13328;DHT22;6733;51.044;3.746;2023-02-10T08:05:49;5.00;99.90
13328;DHT22;6733;51.044;3.746;2023-02-10T08:08:15;4.90;99.90
13328;DHT22;6733;51.044;3.746;2023-02-10T08:10:41;4.80;99.90
13328;DHT22;6733;51.044;3.746;2023-02-10T08:13:07;4.80;99.90
13328;DHT22;6733;51.044;3.746;2023-02-10T08:15:34;4.80;99.90
13328;DHT22;6733;51.044;3.746;2023-02-10T08:18:00;4.80;99.90
13328;DHT22;6733;51.044;3.746;2023-02-10T08:20:27;4.70;99.90
13328;DHT22;6733;51.044;3.746;2023-02-10T08:22:54;4.80;99.90
13328;DHT22;6733;51.044;3.746;2023-02-10T08:25:21;4.80;99.90
13328;DHT22;6733;51.044;3.746;2023-02-10T08:27:47;4.70;99.90
13328;DHT22;6733;51.044;3.746;2023-02-10T08:30:13;4.70;99.90
13328;DHT22;6733;51.044;3.746;2023-02-10T08:32:39;4.70;99.90
13328;DHT22;6733;51.044;3.746;2023-02-10T08:35:05;4.60;99.90
13328;DHT22;6733;51.044;3.746;2023-02-10T08:37:32;4.60;99.90
13328;DHT22;6733;51.044;3.746;2023-02-10T08:39:58;4.60;99.90
13328;DHT22;6733;51.044;3.746;2023-02-10T08:42:25;4.70;99.90
13328;DHT22;6733;51.044;3.746;2023-02-10T08:44:51;4.60;99.90
13328;DHT22;6733;51.044;3.746;2023-02-10T08:47:17;4.80;99.90
13328;DHT22;6733;51.044;3.746;2023-02-10T08:49:43;4.70;99.90
13328;DHT22;6733;51.044;3.746;2023-02-10T08:52:10;4.70;99.90
13328;DHT22;6733;51.044;3.746;2023-02-10T08:54:36;4.70;99.90
13328;DHT22;6733;51.044;3.746;2023-02-10T08:57:02;4.80;99.90
13328;DHT22;6733;51.044;3.746;2023-02-10T08:59:29;4.50;99.90
13328;DHT22;6733;51.044;3.746;2023-02-10T09:01:55;4.30;99.90
13328;DHT22;6733;51.044;3.746;2023-02-10T09:04:21;4.10;99.90
13328;DHT22;6733;51.044;3.746;2023-02-10T09:06:47;4.10;99.90
13328;DHT22;6733;51.044;3.746;2023-02-10T09:09:19;4.10;99.90
13328;DHT22;6733;51.044;3.746;2023-02-10T09:11:48;4.10;99.90
13328;DHT22;6733;51.044;3.746;2023-02-10T09:14:14;4.10;99.90
13328;DHT22;6733;51.044;3.746;2023-02-10T09:16:40;4.20;99.90
13328;DHT22;6733;51.044;3.746;2023-02-10T09:19:06;4.30;99.90
13328;DHT22;6733;51.044;3.746;2023-02-10T09:21:33;4.30;99.90
13328;DHT22;6733;51.044;3.746;2023-02-10T09:23:59;4.30;99.90
13328;DHT22;6733;51.044;3.746;2023-02-10T09:26:25;4.40;99.90
13328;DHT22;6733;51.044;3.746;2023-02-10T09:28:51;4.50;99.90
13328;DHT22;6733;51.044;3.746;2023-02-10T09:31:18;4.60;99.90
13328;DHT22;6733;51.044;3.746;2023-02-10T09:33:44;4.60;99.90
13328;DHT22;6733;51.044;3.746;2023-02-10T09:36:16;4.60;99.90
13328;DHT22;6733;51.044;3.746;2023-02-10T09:38:42;4.60;99.90
13328;DHT22;6733;51.044;3.746;2023-02-10T09:46:51;4.60;99.90
13328;DHT22;6733;51.044;3.746;2023-02-10T09:55:55;4.70;99.90
13328;DHT22;6733;51.044;3.746;2023-02-10T10:01:14;5.00;99.90
13328;DHT22;6733;51.044;3.746;2023-02-10T10:03:50;5.00;99.90
13328;DHT22;6733;51.044;3.746;2023-02-10T10:06:27;5.10;99.90
13328;DHT22;6733;51.044;3.746;2023-02-10T10:14:15;5.20;99.90
13328;DHT22;6733;51.044;3.746;2023-02-10T10:17:05;5.30;99.90
13328;DHT22;6733;51.044;3.746;2023-02-10T10:30:48;5.60;99.90
13328;DHT22;6733;51.044;3.746;2023-02-10T10:33:22;5.60;99.90
13328;DHT22;6733;51.044;3.746;2023-02-10T10:35:50;5.70;99.90
13328;DHT22;6733;51.044;3.746;2023-02-10T10:38:27;5.80;99.90
13328;DHT22;6733;51.044;3.746;2023-02-10T10:40:58;5.90;99.90
13328;DHT22;6733;51.044;3.746;2023-02-10T10:43:30;6.00;99.90
13328;DHT22;6733;51.044;3.746;2023-02-10T10:46:13;6.00;99.90
13328;DHT22;6733;51.044;3.746;2023-02-10T10:48:41;6.00;99.90
13328;DHT22;6733;51.044;3.746;2023-02-10T10:51:08;6.10;99.90
13328;DHT22;6733;51.044;3.746;2023-02-10T10:53:52;6.10;99.90
13328;DHT22;6733;51.044;3.746;2023-02-10T10:58:57;6.20;99.90
13328;DHT22;6733;51.044;3.746;2023-02-10T11:01:36;6.20;99.90
13328;DHT22;6733;51.044;3.746;2023-02-10T11:04:16;6.30;99.90
13328;DHT22;6733;51.044;3.746;2023-02-10T11:06:46;6.30;99.90
13328;DHT22;6733;51.044;3.746;2023-02-10T11:11:43;6.60;99.90
13328;DHT22;6733;51.044;3.746;2023-02-10T11:14:23;6.70;99.90
13328;DHT22;6733;51.044;3.746;2023-02-10T11:16:52;6.80;99.90
13328;DHT22;6733;51.044;3.746;2023-02-10T11:19:22;6.80;99.90
13328;DHT22;6733;51.044;3.746;2023-02-10T11:21:53;6.70;99.90
13328;DHT22;6733;51.044;3.746;2023-02-10T11:24:25;6.80;99.90
13328;DHT22;6733;51.044;3.746;2023-02-10T11:27:29;6.70;99.90
13328;DHT22;6733;51.044;3.746;2023-02-10T11:29:57;6.80;99.90
13328;DHT22;6733;51.044;3.746;2023-02-10T11:34:55;6.80;99.90
13328;DHT22;6733;51.044;3.746;2023-02-10T11:37:31;6.80;99.90
13328;DHT22;6733;51.044;3.746;2023-02-10T11:40:00;6.80;99.90
13328;DHT22;6733;51.044;3.746;2023-02-10T11:42:30;6.80;99.90
13328;DHT22;6733;51.044;3.746;2023-02-10T11:47:29;7.00;99.90
13328;DHT22;6733;51.044;3.746;2023-02-10T11:49:56;6.90;99.90
13328;DHT22;6733;51.044;3.746;2023-02-10T11:52:24;6.90;99.90
13328;DHT22;6733;51.044;3.746;2023-02-10T11:54:51;6.90;99.90
13328;DHT22;6733;51.044;3.746;2023-02-10T12:00:17;7.10;99.90
13328;DHT22;6733;51.044;3.746;2023-02-10T12:08:14;7.10;99.90
13328;DHT22;6733;51.044;3.746;2023-02-10T12:16:38;7.50;99.90
13328;DHT22;6733;51.044;3.746;2023-02-10T12:22:30;7.60;99.90
13328;DHT22;6733;51.044;3.746;2023-02-10T12:28:23;7.80;99.90
13328;DHT22;6733;51.044;3.746;2023-02-10T12:31:23;7.80;99.90
13328;DHT22;6733;51.044;3.746;2023-02-10T12:45:36;8.10;99.90
13328;DHT22;6733;51.044;3.746;2023-02-10T12:51:18;8.00;99.90
13328;DHT22;6733;51.044;3.746;2023-02-10T12:53:52;7.90;99.90
13328;DHT22;6733;51.044;3.746;2023-02-10T12:56:29;7.90;99.90
13328;DHT22;6733;51.044;3.746;2023-02-10T12:59:05;8.00;99.90
13328;DHT22;6733;51.044;3.746;2023-02-10T13:01:46;8.00;99.90
13328;DHT22;6733;51.044;3.746;2023-02-10T13:04:22;8.00;99.90
13328;DHT22;6733;51.044;3.746;2023-02-10T13:06:58;7.90;99.90
13328;DHT22;6733;51.044;3.746;2023-02-10T13:09:42;7.90;99.90
13328;DHT22;6733;51.044;3.746;2023-02-10T13:12:29;8.10;99.90
13328;DHT22;6733;51.044;3.746;2023-02-10T13:15:06;8.40;99.90
13328;DHT22;6733;51.044;3.746;2023-02-10T13:17:49;8.70;99.90
13328;DHT22;6733;51.044;3.746;2023-02-10T13:23:04;8.80;99.90
13328;DHT22;6733;51.044;3.746;2023-02-10T13:29:09;8.90;99.90
13328;DHT22;6733;51.044;3.746;2023-02-10T13:34:48;9.10;99.90
13328;DHT22;6733;51.044;3.746;2023-02-10T13:39:56;9.50;99.90
13328;DHT22;6733;51.044;3.746;2023-02-10T13:42:35;9.30;99.90
13328;DHT22;6733;51.044;3.746;2023-02-10T13:52:57;9.20;99.90
13328;DHT22;6733;51.044;3.746;2023-02-10T13:58:15;9.40;99.90
13328;DHT22;6733;51.044;3.746;2023-02-10T14:06:03;9.20;99.90
13328;DHT22;6733;51.044;3.746;2023-02-10T14:08:36;9.20;99.90
13328;DHT22;6733;51.044;3.746;2023-02-10T14:11:27;9.20;99.90
13328;DHT22;6733;51.044;3.746;2023-02-10T14:14:02;9.40;99.90
13328;DHT22;6733;51.044;3.746;2023-02-10T14:16:38;9.60;99.90
13328;DHT22;6733;51.044;3.746;2023-02-10T14:19:19;9.70;99.90
13328;DHT22;6733;51.044;3.746;2023-02-10T14:21:47;9.40;99.90
13328;DHT22;6733;51.044;3.746;2023-02-10T14:24:23;9.10;99.90
13328;DHT22;6733;51.044;3.746;2023-02-10T14:26:50;9.30;99.90
13328;DHT22;6733;51.044;3.746;2023-02-10T14:29:19;9.40;99.90
13328;DHT22;6733;51.044;3.746;2023-02-10T14:31:51;9.30;99.90
13328;DHT22;6733;51.044;3.746;2023-02-10T14:34:25;9.30;99.90
13328;DHT22;6733;51.044;3.746;2023-02-10T14:36:55;9.30;99.90
13328;DHT22;6733;51.044;3.746;2023-02-10T14:39:24;9.50;99.90
13328;DHT22;6733;51.044;3.746;2023-02-10T14:41:51;9.60;99.90
13328;DHT22;6733;51.044;3.746;2023-02-10T14:46:56;10.30;99.90
13328;DHT22;6733;51.044;3.746;2023-02-10T14:49:22;10.90;99.90
13328;DHT22;6733;51.044;3.746;2023-02-10T14:51:49;10.90;99.90
13328;DHT22;6733;51.044;3.746;2023-02-10T14:54:21;11.30;99.90
13328;DHT22;6733;51.044;3.746;2023-02-10T14:56:58;11.00;99.90
13328;DHT22;6733;51.044;3.746;2023-02-10T14:59:26;11.10;99.90
13328;DHT22;6733;51.044;3.746;2023-02-10T15:01:54;10.90;99.90
13328;DHT22;6733;51.044;3.746;2023-02-10T15:04:21;10.90;99.90
13328;DHT22;6733;51.044;3.746;2023-02-10T15:06:53;10.90;99.90
13328;DHT22;6733;51.044;3.746;2023-02-10T15:09:24;10.50;99.90
13328;DHT22;6733;51.044;3.746;2023-02-10T15:11:55;10.80;99.90
13328;DHT22;6733;51.044;3.746;2023-02-10T15:14:48;10.50;99.90
13328;DHT22;6733;51.044;3.746;2023-02-10T15:17:20;10.50;99.90
13328;DHT22;6733;51.044;3.746;2023-02-10T15:19:58;10.80;99.90
13328;DHT22;6733;51.044;3.746;2023-02-10T15:33:30;9.50;99.90
13328;DHT22;6733;51.044;3.746;2023-02-10T15:38:50;9.50;99.90
13328;DHT22;6733;51.044;3.746;2023-02-10T15:41:43;9.90;99.90
13328;DHT22;6733;51.044;3.746;2023-02-10T15:47:38;10.10;99.90
13328;DHT22;6733;51.044;3.746;2023-02-10T15:49:39;9.80;99.90
13328;DHT22;6733;51.044;3.746;2023-02-10T15:52:05;9.60;99.90
13328;DHT22;6733;51.044;3.746;2023-02-10T15:54:36;9.40;99.90
13328;DHT22;6733;51.044;3.746;2023-02-10T15:57:05;9.30;99.90
13328;DHT22;6733;51.044;3.746;2023-02-10T15:59:32;9.30;99.90
13328;DHT22;6733;51.044;3.746;2023-02-10T16:02:00;9.20;99.90
13328;DHT22;6733;51.044;3.746;2023-02-10T16:04:27;9.20;99.90
13328;DHT22;6733;51.044;3.746;2023-02-10T16:06:56;9.20;99.90
13328;DHT22;6733;51.044;3.746;2023-02-10T16:09:22;9.30;99.90
13328;DHT22;6733;51.044;3.746;2023-02-10T16:11:48;9.20;99.90
13328;DHT22;6733;51.044;3.746;2023-02-10T16:14:14;9.20;99.90
13328;DHT22;6733;51.044;3.746;2023-02-10T16:16:50;9.20;99.90
13328;DHT22;6733;51.044;3.746;2023-02-10T16:19:22;9.20;99.90
13328;DHT22;6733;51.044;3.746;2023-02-10T16:21:49;9.10;99.90
13328;DHT22;6733;51.044;3.746;2023-02-10T16:24:18;9.00;99.90
13328;DHT22;6733;51.044;3.746;2023-02-10T16:26:46;8.90;99.90
13328;DHT22;6733;51.044;3.746;2023-02-10T16:29:17;8.90;99.90
13328;DHT22;6733;51.044;3.746;2023-02-10T16:31:44;8.80;99.90
13328;DHT22;6733;51.044;3.746;2023-02-10T16:34:11;8.80;99.90
13328;DHT22;6733;51.044;3.746;2023-02-10T16:36:38;8.80;99.90
13328;DHT22;6733;51.044;3.746;2023-02-10T16:39:06;8.70;99.90
13328;DHT22;6733;51.044;3.746;2023-02-10T16:41:36;8.70;99.90
13328;DHT22;6733;51.044;3.746;2023-02-10T16:44:02;8.60;99.90
13328;DHT22;6733;51.044;3.746;2023-02-10T16:46:28;8.50;99.90
13328;DHT22;6733;51.044;3.746;2023-02-10T16:48:55;8.50;99.90
13328;DHT22;6733;51.044;3.746;2023-02-10T16:51:21;8.50;99.90
13328;DHT22;6733;51.044;3.746;2023-02-10T16:53:47;8.40;99.90
13328;DHT22;6733;51.044;3.746;2023-02-10T16:56:15;8.40;99.90
13328;DHT22;6733;51.044;3.746;2023-02-10T16:58:42;8.30;99.90
13328;DHT22;6733;51.044;3.746;2023-02-10T17:01:08;8.30;99.90
13328;DHT22;6733;51.044;3.746;2023-02-10T17:03:34;8.30;99.90
13328;DHT22;6733;51.044;3.746;2023-02-10T17:06:00;8.30;99.90
13328;DHT22;6733;51.044;3.746;2023-02-10T17:08:26;8.20;99.90
13328;DHT22;6733;51.044;3.746;2023-02-10T17:10:53;8.20;99.90
13328;DHT22;6733;51.044;3.746;2023-02-10T17:13:19;8.20;99.90
13328;DHT22;6733;51.044;3.746;2023-02-10T17:15:45;8.10;99.90
13328;DHT22;6733;51.044;3.746;2023-02-10T17:18:14;8.10;99.90
13328;DHT22;6733;51.044;3.746;2023-02-10T17:20:40;8.10;99.90
13328;DHT22;6733;51.044;3.746;2023-02-10T17:23:08;8.00;99.90
13328;DHT22;6733;51.044;3.746;2023-02-10T17:25:34;8.00;99.90
13328;DHT22;6733;51.044;3.746;2023-02-10T17:28:00;8.00;99.90
13328;DHT22;6733;51.044;3.746;2023-02-10T17:30:29;8.00;99.90
13328;DHT22;6733;51.044;3.746;2023-02-10T17:32:55;8.00;99.90
13328;DHT22;6733;51.044;3.746;2023-02-10T17:35:22;8.00;99.90
13328;DHT22;6733;51.044;3.746;2023-02-10T17:37:50;8.00;99.90
13328;DHT22;6733;51.044;3.746;2023-02-10T17:40:34;8.10;99.90
13328;DHT22;6733;51.044;3.746;2023-02-10T17:43:01;8.00;99.90
13328;DHT22;6733;51.044;3.746;2023-02-10T17:45:27;8.00;99.90
13328;DHT22;6733;51.044;3.746;2023-02-10T17:47:53;8.00;99.90
13328;DHT22;6733;51.044;3.746;2023-02-10T17:50:19;8.10;99.90
13328;DHT22;6733;51.044;3.746;2023-02-10T17:52:45;8.10;99.90
13328;DHT22;6733;51.044;3.746;2023-02-10T17:55:11;8.10;99.90
13328;DHT22;6733;51.044;3.746;2023-02-10T17:57:39;8.20;99.90
13328;DHT22;6733;51.044;3.746;2023-02-10T18:00:06;8.10;99.90
13328;DHT22;6733;51.044;3.746;2023-02-10T18:02:32;8.20;99.90
13328;DHT22;6733;51.044;3.746;2023-02-10T18:04:58;8.10;99.90
13328;DHT22;6733;51.044;3.746;2023-02-10T18:07:24;8.10;99.90
13328;DHT22;6733;51.044;3.746;2023-02-10T18:09:50;8.10;99.90
13328;DHT22;6733;51.044;3.746;2023-02-10T18:12:16;8.10;99.90
13328;DHT22;6733;51.044;3.746;2023-02-10T18:14:43;8.10;99.90
13328;DHT22;6733;51.044;3.746;2023-02-10T18:17:09;8.10;99.90
13328;DHT22;6733;51.044;3.746;2023-02-10T18:19:35;8.10;99.90
13328;DHT22;6733;51.044;3.746;2023-02-10T18:22:02;8.10;99.90
13328;DHT22;6733;51.044;3.746;2023-02-10T18:24:28;8.10;99.90
13328;DHT22;6733;51.044;3.746;2023-02-10T18:26:57;8.10;99.90
13328;DHT22;6733;51.044;3.746;2023-02-10T18:29:23;8.10;99.90
13328;DHT22;6733;51.044;3.746;2023-02-10T18:31:49;8.10;99.90
13328;DHT22;6733;51.044;3.746;2023-02-10T18:34:16;8.00;99.90
13328;DHT22;6733;51.044;3.746;2023-02-10T18:36:42;8.10;99.90
13328;DHT22;6733;51.044;3.746;2023-02-10T18:39:23;8.10;99.90
13328;DHT22;6733;51.044;3.746;2023-02-10T18:41:49;8.10;99.90